Latest Weather Observations for Keith West

IDS60801

Issued at 6:34 pm CDT Wednesday 4 March 2015 (issued every 30 minutes, with the page automatically refreshed every 10 minutes)

About weather observations | Map of weather stations | Latest weather observations for SA | Other Formats
Station Details ID: 025557 Name: MUNKORA Lat: -36.11 Lon: 140.33 Height: 27.0 m
Data from the previous 72 hours. | See also: Recent months for locations in South Australia
Date/Time
CDT
Temp
°C
App
Temp
°C
Dew
Point
Rel
Hum
%
Delta-T
°C
Wind Press
QNH
hPa
Press
MSL
hPa
Rain
since 9 am
mm
Dir
 
Spd
km/h
Gust
km/h
Spd
kts
Gust
kts
04/06:30pm 19.9 14.5 10.9 56 4.9 WSW 30 37 16 20 1015.2 1015.1 0.0
04/06:00pm 18.5 13.7 11.8 65 3.7 WSW 28 35 15 19 1015.5 1015.4 0.0
04/05:30pm 19.6 14.5 10.6 56 4.9 SW 28 41 15 22 1015.2 1015.1 0.0
04/05:00pm 20.1 14.3 10.8 55 5.1 WSW 32 41 17 22 1015.1 1015.0 0.0
04/04:30pm 21.2 15.5 9.8 48 6.1 WSW 30 39 16 21 1015.1 1015.0 0.0
04/04:00pm 21.3 15.6 9.9 48 6.2 WSW 30 39 16 21 1015.2 1015.1 0.0
04/03:30pm 20.6 16.3 10.7 53 5.4 W 24 33 13 18 1015.7 1015.6 0.0
04/03:00pm 20.2 15.9 10.6 54 5.2 SW 24 35 13 19 1016.1 1016.0 0.0
04/02:30pm 20.8 16.7 10.0 50 5.8 WSW 22 33 12 18 1016.3 1016.2 0.0
04/02:00pm 20.5 15.2 9.7 50 5.8 SW 28 35 15 19 1016.5 1016.4 0.0
04/01:30pm 21.5 17.5 9.1 45 6.6 SW 20 30 11 16 1016.6 1016.5 0.0
04/01:00pm 21.6 16.7 8.5 43 6.9 SW 24 37 13 20 1016.9 1016.8 0.0
04/12:30pm 21.1 15.8 8.4 44 6.7 SW 26 37 14 20 1017.3 1017.3 0.0
04/12:00pm 22.1 17.6 8.6 42 7.1 WSW 22 37 12 20 1017.5 1017.5 0.0
04/11:30am 21.6 17.4 8.1 42 7.1 WSW 20 30 11 16 1017.6 1017.6 0.0
04/11:00am 20.4 15.8 8.1 45 6.4 WSW 22 33 12 18 1017.7 1017.7 0.0
04/10:30am 20.4 15.5 8.4 46 6.3 SW 24 33 13 18 1017.8 1017.8 0.0
04/10:00am 19.8 15.9 8.8 49 5.8 SW 19 26 10 14 1017.7 1017.7 0.0
04/09:30am 18.1 14.5 8.4 53 5.0 SW 17 24 9 13 1017.9 1017.9 0.0
04/09:00am 17.3 14.6 9.0 58 4.3 SW 13 19 7 10 1018.0 1018.0 0.0
04/08:30am 14.7 13.0 9.9 73 2.5 NW 9 13 5 7 1018.0 1018.0 0.0
04/08:00am 12.8 11.9 10.5 86 1.2 NNW 6 9 3 5 1017.9 1017.9 0.0
04/07:30am 10.3 9.0 9.1 92 0.6 N 6 6 3 3 1017.6 1017.6 0.0
04/07:00am 9.6 8.1 8.4 92 0.6 NW 6 7 3 4 1017.2 1017.2 0.0
04/06:30am 8.6 6.9 7.5 93 0.5 NNW 6 6 3 3 1017.0 1016.9 0.0
04/06:00am 8.1 6.2 6.9 92 0.6 NW 6 6 3 3 1016.9 1016.8 0.0
04/05:30am 9.6 8.5 8.5 93 0.5 W 4 4 2 2 1016.8 1016.7 0.0
04/05:00am 9.7 8.7 8.8 94 0.4 W 4 6 2 3 1016.9 1016.8 0.0
04/04:30am 8.5 7.6 7.6 94 0.4 W 2 4 1 2 1017.0 1016.9 0.0
04/04:00am 7.8 6.3 6.9 94 0.4 W 4 6 2 3 1017.1 1017.1 0.0
04/03:30am 7.5 5.6 6.6 94 0.4 WSW 6 6 3 3 1017.3 1017.3 0.0
04/03:00am 7.9 6.0 6.7 92 0.6 WSW 6 7 3 4 1017.4 1017.4 0.0
04/02:30am 10.7 9.4 9.8 94 0.5 SW 7 9 4 5 1017.7 1017.7 0.0
04/02:00am 9.5 8.0 8.3 92 0.6 SW 6 6 3 3 1018.1 1018.1 0.0
04/01:30am 9.7 8.1 8.1 90 0.8 WSW 6 6 3 3 1018.2 1018.2 0.0
04/01:00am 11.4 10.0 9.5 88 1.0 SSW 7 9 4 5 1018.2 1018.2 0.0
04/12:30am 11.0 9.5 8.6 85 1.2 SSW 6 7 3 4 1018.1 1018.1 0.0
04/12:00am 12.2 10.9 9.8 85 1.2 SSW 7 9 4 5 1018.2 1018.2 0.0
 
Date/Time
CDT
Temp
°C
App
Temp
°C
Dew
Point
Rel
Hum
%
Delta-T
°C
Wind Press
QNH
hPa
Press
MSL
hPa
Rain
since 9 am
mm
Dir
 
Spd
km/h
Gust
km/h
Spd
kts
Gust
kts
03/11:30pm 13.2 12.1 9.8 80 1.7 SSW 6 7 3 4 1018.5 1018.5 0.0
03/11:00pm 14.1 12.5 10.3 78 2.0 SSW 9 13 5 7 1018.6 1018.6 0.0
03/10:30pm 14.5 12.5 10.3 76 2.2 SSW 11 17 6 9 1018.7 1018.7 0.0
03/10:00pm 15.2 12.5 10.2 72 2.6 SSW 15 22 8 12 1018.5 1018.5 0.0
03/09:30pm 15.7 12.2 8.9 64 3.5 SSW 17 24 9 13 1018.3 1018.3 0.0
03/09:00pm 16.4 12.4 8.1 58 4.2 SSW 19 26 10 14 1018.1 1018.1 0.0
03/08:30pm 17.2 13.1 7.8 54 4.7 SSW 19 26 10 14 1017.5 1017.5 0.0
03/08:00pm 18.1 13.4 7.8 51 5.2 SSW 22 30 12 16 1017.0 1016.9 0.0
03/07:30pm 19.3 14.7 8.0 48 5.8 SSW 22 32 12 17 1016.4 1016.3 0.0
03/07:00pm 20.9 15.9 8.2 44 6.6 SSW 24 33 13 18 1016.2 1016.1 0.0
03/06:30pm 22.1 16.7 8.2 41 7.3 SSW 26 35 14 19 1016.1 1016.0 0.0
03/06:00pm 23.4 18.4 7.9 37 8.2 SSW 24 33 13 18 1015.9 1015.8 0.0
03/05:30pm 24.6 19.9 7.7 34 8.9 SSW 22 35 12 19 1015.6 1015.5 0.0
03/05:00pm 25.1 20.4 7.7 33 9.2 SSW 22 30 12 16 1015.3 1015.2 0.0
03/04:30pm 26.1 22.3 7.7 31 9.8 S 17 28 9 15 1015.3 1015.2 0.0
03/04:00pm 25.7 21.5 3.6 24 10.9 S 15 22 8 12 1015.5 1015.4 0.0
03/03:30pm 26.2 22.1 4.1 24 11.1 S 15 28 8 15 1015.9 1015.8 0.0
03/03:00pm 26.0 22.3 4.5 25 10.8 S 13 30 7 16 1016.0 1015.9 0.0
03/02:30pm 25.4 21.3 4.5 26 10.5 S 15 24 8 13 1016.5 1016.4 0.0
03/02:00pm 24.9 21.4 3.5 25 10.5 S 11 22 6 12 1016.9 1016.8 0.0
03/01:30pm 24.2 20.9 4.6 28 9.8 S 11 20 6 11 1017.1 1017.1 0.0
03/01:00pm 23.8 20.1 4.7 29 9.5 S 13 24 7 13 1017.5 1017.5 0.0
03/12:30pm 22.8 19.4 6.1 34 8.5 SSW 13 19 7 10 1018.0 1018.0 0.0
03/12:00pm 22.8 19.8 7.8 38 7.8 SSE 13 24 7 13 1018.4 1018.4 0.0
03/11:30am 21.7 18.4 9.6 46 6.5 S 17 28 9 15 1018.6 1018.6 0.0
03/11:00am 20.2 16.4 9.2 49 5.8 S 19 28 10 15 1018.6 1018.6 0.0
03/10:30am 19.8 15.9 9.4 51 5.5 SSE 20 28 11 15 1018.5 1018.5 0.0
03/10:00am 19.1 15.3 9.9 55 4.9 SSE 20 30 11 16 1018.4 1018.4 0.0
03/09:30am 18.9 14.8 10.2 57 4.7 SSE 22 30 12 16 1018.3 1018.3 0.0
03/09:00am 17.2 13.7 10.1 63 3.8 SSE 19 28 10 15 1018.1 1018.1 0.0
03/08:30am 15.5 13.2 10.3 71 2.7 SSE 13 20 7 11 1017.9 1017.9 0.0
03/08:00am 14.1 11.9 9.5 74 2.4 SSE 11 17 6 9 1017.6 1017.6 0.0
03/07:30am 11.9 10.0 8.9 82 1.5 S 9 13 5 7 1017.3 1017.3 0.0
03/07:00am 11.4 9.9 8.3 81 1.5 SSE 6 7 3 4 1016.9 1016.8 0.0
03/06:30am 11.8 9.7 8.3 79 1.7 S 9 11 5 6 1016.6 1016.5 0.0
03/06:00am 12.4 9.6 8.5 77 1.9 S 13 15 7 8 1016.5 1016.4 0.0
03/05:30am 12.6 10.2 8.5 76 2.0 S 11 13 6 7 1016.1 1016.0 0.0
03/05:00am 13.0 10.9 8.3 73 2.3 S 9 11 5 6 1016.1 1016.0 0.0
03/04:30am 13.7 11.7 8.5 71 2.6 S 9 13 5 7 1015.9 1015.8 0.0
03/04:00am 14.7 12.4 8.9 68 3.0 S 11 13 6 7 1016.1 1016.0 0.0
03/03:30am 15.4 13.5 8.9 65 3.3 S 9 13 5 7 1015.8 1015.7 0.0
03/03:00am 16.0 12.9 9.0 63 3.6 S 15 20 8 11 1015.7 1015.6 0.0
03/02:30am 16.3 13.6 9.0 62 3.8 S 13 20 7 11 1015.8 1015.7 0.0
03/02:00am 16.7 14.0 9.1 61 3.9 S 13 20 7 11 1016.1 1016.0 0.0
03/01:30am 17.0 13.9 8.9 59 4.2 S 15 19 8 10 1015.9 1015.8 0.0
03/01:00am 17.3 14.6 9.0 58 4.3 S 13 15 7 8 1016.1 1016.0 0.0
03/12:30am 17.5 14.5 9.2 58 4.3 S 15 19 8 10 1016.2 1016.1 0.0
03/12:00am 17.8 15.5 8.9 56 4.6 S 11 17 6 9 1016.1 1016.0 0.0
 
Date/Time
CDT
Temp
°C
App
Temp
°C
Dew
Point
Rel
Hum
%
Delta-T
°C
Wind Press
QNH
hPa
Press
MSL
hPa
Rain
since 9 am
mm
Dir
 
Spd
km/h
Gust
km/h
Spd
kts
Gust
kts
02/11:30pm 18.2 16.3 9.0 55 4.8 S 9 13 5 7 1016.2 1016.1 0.0
02/11:00pm 18.4 16.5 9.2 55 4.8 S 9 11 5 6 1016.1 1016.0 0.0
02/10:30pm 18.9 17.4 9.1 53 5.1 S 7 11 4 6 1016.2 1016.1 0.0
02/10:00pm 19.3 16.7 9.5 53 5.2 SSE 13 20 7 11 1015.6 1015.5 0.0
02/09:30pm 19.9 16.6 9.5 51 5.5 S 17 24 9 13 1015.4 1015.3 0.0
02/09:00pm 20.2 17.8 8.8 48 6.0 SSW 11 15 6 8 1015.3 1015.2 0.0
02/08:30pm 20.5 17.4 8.8 47 6.2 SSW 15 19 8 10 1015.0 1014.9 0.0
02/08:00pm 21.6 18.0 8.5 43 6.9 SSW 17 20 9 11 1014.4 1014.3 0.0
02/07:30pm 23.0 19.2 7.5 37 8.1 SSW 17 24 9 13 1014.2 1014.1 0.0
02/07:00pm 24.5 19.9 5.8 30 9.5 SSW 19 26 10 14 1013.6 1013.5 0.0
02/06:30pm 25.5 21.9 5.1 27 10.3 SSW 13 22 7 12 1013.5 1013.4 0.0
02/06:00pm 25.9 23.2 3.8 24 11.0 SW 7 13 4 7 1013.3 1013.2 0.0
02/05:30pm 26.1 22.6 3.4 23 11.2 W 11 17 6 9 1013.2 1013.1 0.0
02/05:00pm 26.6 24.5 3.8 23 11.4 W 4 9 2 5 1013.2 1013.1 0.0
02/04:30pm 26.9 23.5 4.0 23 11.5 WNW 11 22 6 12 1013.5 1013.4 0.0
02/04:00pm 26.1 24.1 4.6 25 10.9 ENE 4 6 2 3 1013.3 1013.2 0.0
02/03:30pm 26.1 23.5 4.0 24 11.0 WNW 7 15 4 8 1013.3 1013.2 0.0
02/03:00pm 26.4 23.5 4.8 25 11.0 NW 9 15 5 8 1013.4 1013.3 0.0
02/02:30pm 26.0 23.7 5.6 27 10.5 N 7 17 4 9 1014.0 1013.9 0.0
02/02:00pm 25.4 23.2 6.1 29 10.0 ENE 7 11 4 6 1014.3 1014.2 0.0
02/01:30pm 24.7 22.1 6.0 30 9.6 NNE 9 15 5 8 1014.7 1014.6 0.0
02/01:00pm 24.7 22.5 6.4 31 9.5 NE 7 19 4 10 1014.4 1014.3 0.0
02/12:30pm 24.0 21.5 6.7 33 8.9 NNE 9 17 5 9 1014.8 1014.7 0.0
02/12:00pm 22.5 19.3 6.7 36 8.1 N 13 22 7 12 1016.1 1016.0 0.0
02/11:30am 21.5 18.9 7.7 41 7.2 NNE 11 17 6 9 1016.9 1016.8 0.0
02/11:00am 20.6 17.6 7.6 43 6.7 NNE 13 17 7 9 1017.6 1017.6 0.0
02/10:30am 19.9 15.9 8.3 47 6.0 NNE 19 26 10 14 1017.2 1017.2 0.0
02/10:00am 17.8 13.6 8.1 53 5.0 NE 20 26 11 14 1017.0 1016.9 0.0
02/09:30am 17.7 12.4 8.3 54 4.8 NE 26 33 14 18 1017.1 1017.1 0.0
02/09:00am 15.9 11.7 8.4 61 3.8 NE 20 32 11 17 1017.1 1017.1 0.0
02/08:30am 14.7 10.1 8.0 64 3.3 NE 22 30 12 16 1017.2 1017.2 0.0
02/08:00am 13.8 9.7 7.8 67 3.0 NE 19 24 10 13 1017.1 1017.1 0.0
02/07:30am 13.0 8.8 7.5 69 2.7 ENE 19 24 10 13 1016.9 1016.8 0.0
02/07:00am 12.9 9.1 7.6 70 2.6 ENE 17 24 9 13 1016.4 1016.3 0.0
02/06:30am 12.3 9.2 7.4 72 2.4 ENE 13 17 7 9 1016.4 1016.3 0.0
02/06:00am 11.9 9.3 7.6 75 2.1 E 11 15 6 8 1016.2 1016.1 0.0
02/05:30am 11.6 9.3 7.3 75 2.1 E 9 13 5 7 1016.0 1015.9 0.0
02/05:00am 10.6 8.2 7.1 79 1.7 E 9 11 5 6 1015.8 1015.7 0.0
02/04:30am 10.1 7.3 6.8 80 1.6 ESE 11 13 6 7 1015.8 1015.7 0.0
02/04:00am 9.4 6.9 6.5 82 1.3 ESE 9 11 5 6 1015.8 1015.7 0.0
02/03:30am 10.3 8.2 6.8 79 1.6 SE 7 7 4 4 1016.1 1016.0 0.0
02/03:00am 10.8 8.8 7.3 79 1.7 SE 7 7 4 4 1016.1 1016.0 0.0
02/02:30am 11.5 9.6 7.4 76 2.0 SE 7 11 4 6 1016.2 1016.1 0.0
02/02:00am 11.9 9.3 7.6 75 2.1 SE 11 13 6 7 1016.4 1016.3 0.0
02/01:30am 12.9 9.9 7.8 71 2.5 SE 13 17 7 9 1016.6 1016.5 0.0
02/01:00am 13.3 9.9 7.7 69 2.8 SE 15 19 8 10 1016.6 1016.5 0.0
02/12:30am 13.8 10.8 7.8 67 3.0 SE 13 17 7 9 1017.0 1016.9 0.0
02/12:00am 14.2 11.6 7.7 65 3.2 SSE 11 19 6 10 1017.2 1017.2 0.0
 
Date/Time
CDT
Temp
°C
App
Temp
°C
Dew
Point
Rel
Hum
%
Delta-T
°C
Wind Press
QNH
hPa
Press
MSL
hPa
Rain
since 9 am
mm
Dir
 
Spd
km/h
Gust
km/h
Spd
kts
Gust
kts
01/11:30pm 14.7 11.7 7.7 63 3.5 SSE 13 20 7 11 1017.5 1017.5 0.0
01/11:00pm 14.6 10.9 7.9 64 3.3 S 17 20 9 11 1017.8 1017.8 0.0
01/10:30pm 15.6 12.3 7.9 60 3.9 S 15 19 8 10 1017.8 1017.8 0.0
01/10:00pm 16.5 12.2 8.0 57 4.3 S 20 26 11 14 1017.4 1017.4 0.0
01/09:30pm 17.4 13.1 8.0 54 4.8 S 20 24 11 13 1016.9 1016.8 0.0
01/09:00pm 18.7 15.4 6.2 44 6.2 SSE 13 19 7 10 1016.6 1016.5 0.0
01/08:30pm 20.6 17.1 5.4 37 7.5 SE 13 17 7 9 1016.0 1015.9 0.0
01/08:00pm 21.7 18.5 5.2 34 8.2 SSE 11 15 6 8 1015.6 1015.5 0.0
01/07:30pm 22.9 19.0 5.3 32 8.8 SE 15 20 8 11 1015.3 1015.2 0.0
01/07:00pm 23.8 19.5 5.2 30 9.4 SE 17 24 9 13 1014.9 1014.8 0.0

Other Formats:

Comma delimited format used in spreadsheet applications
http://www.bom.gov.au/fwo/IDS60801/IDS60801.95815.axf

JavaScript Object Notation format (JSON) in row-major order
http://www.bom.gov.au/fwo/IDS60801/IDS60801.95815.json